Time;durP1;ratioP1;P1;durP2;ratioP2;P2;SDS_P1;SDS_P2;PMS_P1;PMS_P2;Temp;Humidity;BMP_temperature;BMP_pressure;BME280_temperature;BME280_humidity;BME280_pressure;Samples;Min_cycle;Max_cycle;Signal;HPM_P1;HPM_P2
2022/06/04 00:00:33;;;;;;;6.25;3.50;;;20.00;74.30;;;;;;4990399;28;20231;-74
2022/06/04 00:02:59;;;;;;;4.55;2.92;;;20.00;74.40;;;;;;4999341;28;20079;-73
2022/06/04 00:05:26;;;;;;;5.03;3.50;;;20.00;75.10;;;;;;4996582;28;20030;-74
2022/06/04 00:07:52;;;;;;;5.43;3.83;;;20.00;74.30;;;;;;5011820;28;20037;-72
2022/06/04 00:15:51;;;;;;;2.83;2.63;;;20.00;74.50;;;;;;5002600;28;20041;-73
2022/06/04 00:18:17;;;;;;;4.20;3.90;;;20.00;74.30;;;;;;4972792;28;20123;-73
2022/06/04 00:20:43;;;;;;;4.50;4.10;;;20.00;74.40;;;;;;4988102;28;20494;-74
2022/06/04 00:23:09;;;;;;;3.70;3.28;;;20.00;74.40;;;;;;5000428;28;20030;-73
2022/06/04 00:25:35;;;;;;;8.15;4.38;;;20.00;74.70;;;;;;5012138;28;20106;-73
2022/06/04 00:28:03;;;;;;;5.80;4.20;;;20.00;74.60;;;;;;4994604;28;20124;-73
2022/06/04 00:30:29;;;;;;;5.65;3.22;;;20.00;74.80;;;;;;4981387;28;20142;-73
2022/06/04 00:32:54;;;;;;;3.80;3.50;;;19.90;74.70;;;;;;4992405;28;20038;-73
2022/06/04 00:35:20;;;;;;;5.45;4.45;;;19.90;74.60;;;;;;4989930;28;20041;-73
2022/06/04 00:37:46;;;;;;;5.18;4.72;;;19.90;75.50;;;;;;5005679;28;20053;-73
2022/06/04 00:40:14;;;;;;;5.20;3.95;;;19.90;74.90;;;;;;4990115;28;20566;-73
2022/06/04 00:42:39;;;;;;;3.67;3.38;;;19.90;75.10;;;;;;4947171;28;20042;-74
2022/06/04 00:45:29;;;;;;;5.65;4.18;;;19.80;74.90;;;;;;4977626;28;20073;-74
2022/06/04 00:47:55;;;;;;;4.75;3.92;;;19.80;75.80;;;;;;4995658;28;20034;-73
2022/06/04 00:50:20;;;;;;;4.70;3.80;;;19.80;75.10;;;;;;4997158;28;20052;-73
2022/06/04 00:52:47;;;;;;;4.07;3.78;;;19.80;75.30;;;;;;4982566;28;20126;-73
2022/06/04 00:55:12;;;;;;;5.22;4.13;;;19.70;75.40;;;;;;4988171;28;20049;-73
2022/06/04 00:57:58;;;;;;;5.43;4.00;;;19.70;75.60;;;;;;4979955;28;20042;-73
2022/06/04 01:00:53;;;;;;;4.32;3.35;;;19.70;76.10;;;;;;4990330;28;20061;-73
2022/06/04 01:03:42;;;;;;;4.93;3.13;;;19.60;76.60;;;;;;4990185;28;20038;-74
2022/06/04 01:06:14;;;;;;;4.18;3.78;;;19.60;76.30;;;;;;4994041;28;20033;-74
2022/06/04 01:08:45;;;;;;;3.72;3.42;;;19.60;75.90;;;;;;4999102;28;20041;-74
2022/06/04 01:11:26;;;;;;;4.28;3.50;;;19.60;76.00;;;;;;4994627;28;20517;-73
2022/06/04 01:14:17;;;;;;;6.53;3.67;;;19.60;75.90;;;;;;5015164;28;20038;-73
2022/06/04 01:16:46;;;;;;;4.53;4.13;;;19.60;75.60;;;;;;4982391;28;20073;-74
2022/06/04 01:19:36;;;;;;;4.50;4.10;;;19.60;75.70;;;;;;4999657;28;20070;-72
2022/06/04 01:22:10;;;;;;;3.63;3.33;;;19.60;75.90;;;;;;5000797;28;20110;-73
2022/06/04 01:25:01;;;;;;;7.35;4.90;;;19.60;75.60;;;;;;4985329;28;20529;-73
2022/06/04 01:27:35;;;;;;;4.57;4.18;;;19.50;75.70;;;;;;4972016;28;20765;-73
2022/06/04 01:30:08;;;;;;;4.15;3.75;;;19.50;75.80;;;;;;4975594;28;20030;-73
2022/06/04 01:33:00;;;;;;;3.90;3.50;;;19.50;75.70;;;;;;4974492;28;20549;-74
2022/06/04 01:35:39;;;;;;;4.38;3.97;;;19.50;76.80;;;;;;4994127;28;20034;-73
2022/06/04 01:38:26;;;;;;;5.63;3.65;;;19.40;76.00;;;;;;5011997;28;20685;-73
2022/06/04 01:41:04;;;;;;;5.13;3.35;;;19.40;75.80;;;;;;4994380;28;20076;-73
2022/06/04 01:43:35;;;;;;;6.30;5.00;;;19.40;75.60;;;;;;4985332;28;20045;-72
2022/06/04 01:46:30;;;;;;;;;;;19.40;75.90;;;;;;4985383;28;20030;-73
2022/06/04 01:49:31;;;;;;;4.82;4.32;;;19.40;75.50;;;;;;4975214;28;19917;-73
2022/06/04 01:52:04;;;;;;;4.80;4.32;;;19.40;75.90;;;;;;4965110;28;20121;-74
2022/06/04 01:54:32;;;;;;;5.05;4.55;;;19.40;75.60;;;;;;4999571;28;20077;-73
2022/06/04 01:57:01;;;;;;;4.78;4.30;;;19.30;75.80;;;;;;4979953;28;20117;-73
2022/06/04 01:59:43;;;;;;;4.93;4.43;;;19.30;76.00;;;;;;4974169;28;20033;-73
2022/06/04 02:02:12;;;;;;;5.20;4.68;;;19.20;76.50;;;;;;4978333;28;20038;-73
2022/06/04 02:04:39;;;;;;;6.28;3.88;;;19.20;76.30;;;;;;4988556;28;20045;-73
2022/06/04 02:07:32;;;;;;;4.50;4.00;;;19.20;76.40;;;;;;5003316;28;20030;-73
2022/06/04 02:10:25;;;;;;;7.03;4.30;;;19.20;76.40;;;;;;4992458;28;20135;-72
2022/06/04 02:12:51;;;;;;;5.32;4.03;;;19.20;77.10;;;;;;4941553;28;20028;-74
2022/06/04 02:15:19;;;;;;;4.65;4.25;;;19.10;76.50;;;;;;4996347;28;20395;-73
2022/06/04 02:17:47;;;;;;;5.88;3.22;;;19.00;76.60;;;;;;4970290;28;20054;-74
2022/06/04 02:20:13;;;;;;;4.82;4.40;;;19.00;76.60;;;;;;4989036;28;20063;-73
2022/06/04 02:22:38;;;;;;;5.63;4.20;;;19.00;76.60;;;;;;4994078;28;20044;-73
2022/06/04 02:25:05;;;;;;;6.57;4.13;;;18.90;76.70;;;;;;5019898;28;20520;-74
2022/06/04 02:27:31;;;;;;;4.97;4.35;;;18.90;76.70;;;;;;4990383;28;20068;-74
2022/06/04 02:29:56;;;;;;;4.50;4.10;;;18.90;76.60;;;;;;4994892;28;20675;-73
2022/06/04 02:32:26;;;;;;;4.00;3.70;;;18.90;76.80;;;;;;4988534;28;20161;-73
2022/06/04 02:35:13;;;;;;;5.75;4.63;;;18.80;76.80;;;;;;5029610;28;20085;-73
2022/06/04 02:37:51;;;;;;;5.95;4.22;;;18.80;77.20;;;;;;5005479;28;20071;-73
2022/06/04 02:40:20;;;;;;;4.28;3.88;;;18.70;77.20;;;;;;5005219;28;20066;-73
2022/06/04 02:42:51;;;;;;;8.30;4.60;;;18.60;76.80;;;;;;4964929;28;20050;-74
2022/06/04 02:45:20;;;;;;;4.00;3.43;;;18.60;76.90;;;;;;4965787;28;20061;-73
2022/06/04 02:47:49;;;;;;;4.07;3.65;;;18.60;77.00;;;;;;4981230;28;20047;-73
2022/06/04 02:50:26;;;;;;;5.00;4.20;;;18.50;76.90;;;;;;4992637;28;20099;-74
2022/06/04 02:52:53;;;;;;;4.97;3.85;;;18.50;76.80;;;;;;4992353;28;20038;-73
2022/06/04 02:55:23;;;;;;;6.88;4.40;;;18.40;76.80;;;;;;4987636;28;20038;-75
2022/06/04 02:57:50;;;;;;;5.03;4.18;;;18.40;76.90;;;;;;4990203;28;20105;-73
2022/06/04 03:00:17;;;;;;;6.05;4.32;;;18.30;76.90;;;;;;5012143;28;20038;-74
2022/06/04 03:02:43;;;;;;;5.18;3.45;;;18.20;77.10;;;;;;4990732;28;20064;-74
2022/06/04 03:05:17;;;;;;;6.57;4.20;;;18.10;77.20;;;;;;5028075;28;20526;-72
2022/06/04 03:07:44;;;;;;;9.30;5.13;;;18.10;77.50;;;;;;5010737;28;20113;-74
2022/06/04 03:10:19;;;;;;;4.72;4.25;;;18.10;77.50;;;;;;4989259;28;20038;-72
2022/06/04 03:12:45;;;;;;;5.47;3.50;;;18.10;77.70;;;;;;4999206;28;20487;-73
2022/06/04 03:15:11;;;;;;;4.05;3.65;;;18.10;77.50;;;;;;4985357;28;20049;-73
2022/06/04 03:17:37;;;;;;;4.70;4.15;;;18.10;77.50;;;;;;4976861;28;20490;-73
2022/06/04 03:20:04;;;;;;;6.65;4.43;;;18.00;77.40;;;;;;4982398;28;20056;-73
2022/06/04 03:22:29;;;;;;;5.07;3.97;;;18.00;77.50;;;;;;4991273;28;20029;-73
2022/06/04 03:24:55;;;;;;;5.13;4.28;;;18.00;77.50;;;;;;4974701;28;20680;-75
2022/06/04 03:27:20;;;;;;;3.90;3.60;;;18.00;77.50;;;;;;4995105;28;20038;-75
2022/06/04 03:29:46;;;;;;;3.97;3.63;;;17.90;77.60;;;;;;5005175;28;20052;-73
2022/06/04 03:32:11;;;;;;;4.40;4.00;;;17.90;77.70;;;;;;5006825;28;20029;-74
2022/06/04 03:34:37;;;;;;;4.93;4.05;;;17.90;77.80;;;;;;5022296;28;20099;-73
2022/06/04 03:37:03;;;;;;;4.35;3.88;;;18.00;78.00;;;;;;5005693;28;20042;-73
2022/06/04 03:39:29;;;;;;;4.60;4.18;;;18.00;78.10;;;;;;5009841;28;20026;-73
2022/06/04 03:41:54;;;;;;;5.07;4.35;;;17.90;78.00;;;;;;4995985;28;20092;-74
2022/06/04 03:44:20;;;;;;;6.50;4.28;;;17.90;78.10;;;;;;4996363;28;20037;-73
2022/06/04 03:46:45;;;;;;;4.90;4.45;;;17.90;78.10;;;;;;5007810;28;20120;-74
2022/06/04 03:49:11;;;;;;;4.63;4.22;;;17.90;78.20;;;;;;4997255;28;20511;-73
2022/06/04 03:51:37;;;;;;;5.63;4.50;;;17.90;78.30;;;;;;5002832;28;20029;-73
2022/06/04 03:54:03;;;;;;;4.95;4.50;;;17.90;78.40;;;;;;4977486;28;20058;-74
2022/06/04 03:56:28;;;;;;;4.63;4.22;;;17.90;78.70;;;;;;4995130;28;20103;-73
2022/06/04 03:58:54;;;;;;;5.18;4.20;;;17.90;78.80;;;;;;5007502;28;20116;-73
2022/06/04 04:01:27;;;;;;;7.57;4.00;;;17.80;78.80;;;;;;4997455;28;20045;-73
2022/06/04 04:03:52;;;;;;;4.18;3.58;;;17.80;79.20;;;;;;5009372;28;20038;-73
2022/06/04 04:06:20;;;;;;;4.53;3.88;;;17.80;78.90;;;;;;4996088;28;20450;-73
2022/06/04 04:08:46;;;;;;;4.30;3.85;;;17.80;78.90;;;;;;4978723;28;20121;-73
2022/06/04 04:11:15;;;;;;;5.45;4.20;;;17.80;78.80;;;;;;5018544;28;20120;-73
2022/06/04 04:13:41;;;;;;;4.32;3.72;;;17.90;78.90;;;;;;5010606;28;20033;-74
2022/06/04 04:16:08;;;;;;;7.88;4.13;;;17.90;79.10;;;;;;4976610;28;20026;-72
2022/06/04 04:18:34;;;;;;;6.72;5.03;;;17.90;79.10;;;;;;4984273;28;20068;-73
2022/06/04 04:21:04;;;;;;;6.28;5.68;;;18.00;79.10;;;;;;4996265;28;20040;-73
2022/06/04 04:23:30;;;;;;;6.97;6.30;;;18.00;79.30;;;;;;4982879;28;20405;-73
2022/06/04 04:25:55;;;;;;;5.25;4.75;;;18.00;79.30;;;;;;4987806;28;20053;-73
2022/06/04 04:28:21;;;;;;;5.57;5.07;;;18.00;79.40;;;;;;4995664;28;20030;-73
2022/06/04 04:30:46;;;;;;;8.30;6.88;;;18.10;79.40;;;;;;5010297;28;20034;-74
2022/06/04 04:33:12;;;;;;;7.85;7.05;;;18.10;79.50;;;;;;4966934;28;20044;-73
2022/06/04 04:35:37;;;;;;;7.90;7.10;;;18.10;79.70;;;;;;4972378;28;20042;-73
2022/06/04 04:38:03;;;;;;;6.70;5.28;;;18.10;79.90;;;;;;5019482;28;20030;-73
2022/06/04 04:40:29;;;;;;;7.15;6.30;;;18.10;80.00;;;;;;4997695;28;20037;-73
2022/06/04 04:42:55;;;;;;;13.48;7.32;;;18.10;80.00;;;;;;4963500;28;20063;-72
2022/06/04 04:45:21;;;;;;;8.18;7.38;;;18.10;80.20;;;;;;4974000;28;20030;-73
2022/06/04 04:47:47;;;;;;;6.72;5.45;;;18.20;80.30;;;;;;4995314;28;20466;-73
2022/06/04 04:50:17;;;;;;;7.72;6.45;;;18.20;80.40;;;;;;4988923;28;20029;-74
2022/06/04 04:52:42;;;;;;;13.32;8.10;;;18.20;80.30;;;;;;4981682;28;20037;-74
2022/06/04 04:55:08;;;;;;;9.25;6.60;;;18.20;80.20;;;;;;4996203;28;20033;-74
2022/06/04 04:57:34;;;;;;;11.50;8.55;;;18.20;80.10;;;;;;4980110;28;20025;-74
2022/06/04 04:59:59;;;;;;;8.70;6.95;;;18.30;80.00;;;;;;4986558;28;20384;-74
2022/06/04 05:02:25;;;;;;;10.70;8.20;;;18.30;80.10;;;;;;4997953;28;20048;-75
2022/06/04 05:04:50;;;;;;;8.07;7.10;;;18.30;80.00;;;;;;4989505;28;20123;-73
2022/06/04 05:07:16;;;;;;;9.02;8.05;;;18.40;80.10;;;;;;4979575;28;20727;-74
2022/06/04 05:09:41;;;;;;;7.30;6.60;;;18.40;80.20;;;;;;5005713;28;20028;-74
2022/06/04 05:12:08;;;;;;;8.50;6.38;;;18.40;80.30;;;;;;5001730;28;20057;-73
2022/06/04 05:14:34;;;;;;;9.68;7.95;;;18.40;80.20;;;;;;5003766;28;20034;-73
2022/06/04 05:17:00;;;;;;;7.80;7.00;;;18.50;80.00;;;;;;4986755;28;20039;-73
2022/06/04 05:19:25;;;;;;;8.98;8.00;;;18.50;80.00;;;;;;4989764;28;20053;-74
2022/06/04 05:21:52;;;;;;;8.50;7.65;;;18.50;79.90;;;;;;5003686;28;20025;-75
2022/06/04 05:24:26;;;;;;;7.07;6.05;;;18.50;80.30;;;;;;4990513;28;20030;-74
2022/06/04 05:26:51;;;;;;;7.93;6.38;;;18.60;80.70;;;;;;4999321;28;20045;-73
2022/06/04 05:29:17;;;;;;;7.03;6.32;;;18.60;80.50;;;;;;5015501;28;20180;-74
2022/06/04 05:31:43;;;;;;;8.43;6.22;;;18.60;80.60;;;;;;4991633;28;20034;-74
2022/06/04 05:34:09;;;;;;;7.63;6.80;;;18.60;80.50;;;;;;5003559;28;20034;-73
2022/06/04 05:36:35;;;;;;;6.88;6.18;;;18.70;80.60;;;;;;4995581;28;20034;-73
2022/06/04 05:39:01;;;;;;;8.00;7.18;;;18.70;80.80;;;;;;4999502;28;20038;-74
2022/06/04 05:41:26;;;;;;;7.78;7.07;;;18.70;81.40;;;;;;4989496;28;20045;-74
2022/06/04 05:43:53;;;;;;;6.43;5.78;;;18.80;80.70;;;;;;4978261;28;20026;-73
2022/06/04 05:46:20;;;;;;;8.05;7.20;;;18.80;80.40;;;;;;4989762;28;20122;-74
2022/06/04 05:48:46;;;;;;;8.02;6.70;;;18.80;80.20;;;;;;4999327;28;20056;-74
2022/06/04 05:51:12;;;;;;;8.60;7.68;;;18.90;80.40;;;;;;5003187;28;20038;-75
2022/06/04 05:53:38;;;;;;;8.60;7.70;;;19.00;80.30;;;;;;5019483;28;20037;-74
2022/06/04 05:56:12;;;;;;;9.20;8.05;;;19.00;80.40;;;;;;4992571;28;20045;-74
2022/06/04 05:58:37;;;;;;;7.50;6.68;;;19.00;80.50;;;;;;4995176;28;20034;-75
2022/06/04 06:01:03;;;;;;;10.55;7.68;;;19.10;80.30;;;;;;5032186;28;20056;-75
2022/06/04 06:03:29;;;;;;;16.30;11.07;;;19.10;80.00;;;;;;5000057;28;20045;-73
2022/06/04 06:05:54;;;;;;;12.13;10.60;;;19.10;79.80;;;;;;5007097;28;20037;-74
2022/06/04 06:08:20;;;;;;;7.88;6.93;;;19.20;80.10;;;;;;5000756;28;20043;-74
2022/06/04 06:10:45;;;;;;;13.20;9.70;;;19.20;80.00;;;;;;4990213;28;20041;-74
2022/06/04 06:13:11;;;;;;;14.30;10.05;;;19.20;79.80;;;;;;5022108;28;20140;-74
2022/06/04 06:15:37;;;;;;;13.05;9.20;;;19.40;79.90;;;;;;5002120;28;20041;-74
2022/06/04 06:18:03;;;;;;;7.68;6.72;;;19.40;79.90;;;;;;5005802;28;20052;-74
2022/06/04 06:20:28;;;;;;;8.07;7.35;;;19.50;79.70;;;;;;4997430;28;20039;-75
2022/06/04 06:22:54;;;;;;;6.32;5.72;;;19.70;79.50;;;;;;4988613;28;20129;-74
2022/06/04 06:25:20;;;;;;;6.45;5.85;;;19.80;79.30;;;;;;5005373;28;20110;-74
2022/06/04 06:27:45;;;;;;;7.30;6.43;;;20.00;79.10;;;;;;4989366;28;20127;-74
2022/06/04 06:30:11;;;;;;;7.18;6.47;;;20.10;78.80;;;;;;4989342;28;20046;-75
2022/06/04 06:32:40;;;;;;;6.50;5.88;;;20.20;78.40;;;;;;4998280;28;20026;-75
2022/06/04 06:35:06;;;;;;;6.40;5.80;;;20.40;78.20;;;;;;5002728;28;20454;-74
2022/06/04 06:37:31;;;;;;;6.95;6.25;;;20.50;78.00;;;;;;5013938;28;20038;-75
2022/06/04 06:39:57;;;;;;;7.47;6.88;;;20.60;77.80;;;;;;4987465;28;20022;-74
2022/06/04 06:42:22;;;;;;;7.40;5.72;;;20.70;77.60;;;;;;5010100;28;20033;-74
2022/06/04 06:44:48;;;;;;;7.22;5.57;;;20.70;77.80;;;;;;4989937;28;20064;-75
2022/06/04 06:47:14;;;;;;;7.07;6.47;;;20.80;77.60;;;;;;5009274;28;20067;-73
2022/06/04 06:49:39;;;;;;;6.40;5.75;;;21.00;77.30;;;;;;4991349;28;20065;-73
2022/06/04 06:52:06;;;;;;;7.32;6.72;;;21.10;76.90;;;;;;5023043;28;20030;-73
2022/06/04 06:54:34;;;;;;;8.60;7.47;;;21.10;76.60;;;;;;5003944;28;20060;-74
2022/06/04 06:57:00;;;;;;;7.78;7.05;;;21.20;76.40;;;;;;4998255;28;20041;-74
2022/06/04 06:59:27;;;;;;;8.05;7.18;;;21.40;76.30;;;;;;4987118;28;20034;-73
2022/06/04 07:01:54;;;;;;;7.65;6.10;;;21.50;76.20;;;;;;4986599;28;20081;-73
2022/06/04 07:04:21;;;;;;;6.00;5.50;;;21.50;75.90;;;;;;5009889;28;20033;-74
2022/06/04 07:06:48;;;;;;;5.43;5.03;;;21.60;75.70;;;;;;4986475;28;20038;-74
2022/06/04 07:09:16;;;;;;;5.47;4.75;;;21.70;75.50;;;;;;4975202;28;20065;-74
2022/06/04 07:11:42;;;;;;;5.28;4.88;;;21.80;75.30;;;;;;5029402;28;20057;-73
2022/06/04 07:14:08;;;;;;;4.78;4.38;;;21.90;75.10;;;;;;5009985;28;20518;-73
2022/06/04 07:16:33;;;;;;;5.95;5.35;;;22.00;74.80;;;;;;4983509;28;20049;-74
2022/06/04 07:19:00;;;;;;;5.13;4.40;;;22.10;74.50;;;;;;4999442;28;20045;-73
2022/06/04 07:21:26;;;;;;;5.70;4.60;;;22.10;74.20;;;;;;5012234;28;20426;-74
2022/06/04 07:23:52;;;;;;;5.10;4.63;;;22.10;73.90;;;;;;4998194;28;20423;-74
2022/06/04 07:26:17;;;;;;;5.55;5.05;;;22.20;73.80;;;;;;4993432;28;20057;-74
2022/06/04 07:28:43;;;;;;;5.22;4.82;;;22.20;73.60;;;;;;4992081;28;20049;-73
2022/06/04 07:31:09;;;;;;;4.80;4.28;;;22.30;73.40;;;;;;4982919;28;20038;-74
2022/06/04 07:33:35;;;;;;;5.50;5.00;;;22.30;73.20;;;;;;4986231;28;20504;-74
2022/06/04 07:36:00;;;;;;;5.22;4.72;;;22.40;73.00;;;;;;4993351;28;20038;-74
2022/06/04 07:38:26;;;;;;;4.93;4.53;;;22.50;72.80;;;;;;4998933;28;20058;-74
2022/06/04 07:40:51;;;;;;;7.65;4.78;;;22.50;72.50;;;;;;5002378;28;20037;-73
2022/06/04 07:43:17;;;;;;;4.53;4.13;;;22.70;72.50;;;;;;4996707;28;20026;-74
2022/06/04 07:45:43;;;;;;;4.55;4.15;;;22.70;72.30;;;;;;5000767;28;20085;-74
2022/06/04 07:48:09;;;;;;;5.57;4.10;;;22.80;72.00;;;;;;5017866;28;20545;-74
2022/06/04 07:50:35;;;;;;;4.43;3.85;;;23.00;71.70;;;;;;4990063;28;20034;-73
2022/06/04 07:53:00;;;;;;;4.75;4.35;;;23.10;71.40;;;;;;5004407;28;20038;-75
2022/06/04 07:55:26;;;;;;;4.53;3.47;;;23.20;71.10;;;;;;5007495;28;20110;-75
2022/06/04 07:57:52;;;;;;;6.30;4.57;;;23.30;70.80;;;;;;5008045;28;20057;-74
2022/06/04 08:00:19;;;;;;;3.83;3.50;;;23.40;70.50;;;;;;5013699;28;20030;-73
2022/06/04 08:02:45;;;;;;;3.75;3.45;;;23.50;70.30;;;;;;4976781;28;20045;-73
2022/06/04 08:05:12;;;;;;;4.82;4.32;;;23.50;69.90;;;;;;5006202;28;20030;-74
2022/06/04 08:07:37;;;;;;;4.65;3.33;;;23.60;69.60;;;;;;4972656;28;20038;-73
2022/06/04 08:10:04;;;;;;;4.32;3.92;;;23.60;69.40;;;;;;4994538;28;20122;-74
2022/06/04 08:12:32;;;;;;;5.25;3.63;;;23.70;69.30;;;;;;4992416;28;20029;-73
2022/06/04 08:14:57;;;;;;;4.40;4.00;;;23.80;69.00;;;;;;4996168;28;20084;-73
2022/06/04 08:17:23;;;;;;;5.97;4.00;;;23.80;68.80;;;;;;5000007;28;20045;-74
2022/06/04 08:19:49;;;;;;;5.63;3.83;;;23.90;68.60;;;;;;5014162;28;21557;-74
2022/06/04 08:22:14;;;;;;;4.00;3.63;;;23.80;68.40;;;;;;4986859;28;20619;-73
2022/06/04 08:24:40;;;;;;;4.47;2.92;;;23.80;68.30;;;;;;4999959;28;20038;-73
2022/06/04 08:27:06;;;;;;;4.15;3.60;;;23.90;68.10;;;;;;4999291;28;20032;-74
2022/06/04 08:29:54;;;;;;;4.07;3.70;;;24.00;68.10;;;;;;4991492;28;20123;-74
2022/06/04 08:32:20;;;;;;;4.32;3.40;;;24.00;67.70;;;;;;4964194;28;20034;-73
2022/06/04 08:34:46;;;;;;;3.72;3.42;;;24.10;67.60;;;;;;5003969;28;20041;-76
2022/06/04 08:37:11;;;;;;;4.43;3.78;;;24.10;68.30;;;;;;5001647;28;20050;-73
2022/06/04 08:39:37;;;;;;;3.17;2.97;;;24.10;67.20;;;;;;4996953;28;20032;-74
2022/06/04 08:42:11;;;;;;;3.35;2.72;;;24.20;67.00;;;;;;4998458;28;20053;-74
2022/06/04 08:44:58;;;;;;;6.68;3.50;;;24.30;66.90;;;;;;5014476;28;20121;-74
2022/06/04 08:47:27;;;;;;;3.33;3.03;;;24.30;66.70;;;;;;5002207;28;20041;-75
2022/06/04 08:50:01;;;;;;;3.22;3.03;;;24.30;66.50;;;;;;5014111;28;20035;-74
2022/06/04 08:52:29;;;;;;;3.60;3.30;;;24.40;66.20;;;;;;4994873;28;20038;-76
2022/06/04 08:58:03;;;;;;;3.63;3.05;;;24.50;65.80;;;;;;5011804;28;20040;-74
2022/06/04 09:00:52;;;;;;;3.45;3.15;;;24.60;65.70;;;;;;5020121;28;20100;-75
2022/06/04 09:03:29;;;;;;;5.63;2.90;;;24.70;65.60;;;;;;4991168;28;20057;-76
2022/06/04 09:05:57;;;;;;;3.33;3.05;;;24.80;65.50;;;;;;4997861;28;20558;-75
2022/06/04 09:08:33;;;;;;;2.80;2.60;;;24.90;65.20;;;;;;5007256;28;20046;-76
2022/06/04 09:10:58;;;;;;;4.70;3.78;;;25.00;64.90;;;;;;4991805;28;20034;-75
2022/06/04 09:13:34;;;;;;;3.28;2.97;;;25.10;64.80;;;;;;5017570;28;20054;-75
2022/06/04 09:16:04;;;;;;;3.70;3.40;;;25.10;64.30;;;;;;5021083;28;20045;-75
2022/06/04 09:18:33;;;;;;;3.80;3.50;;;25.20;64.10;;;;;;4996989;28;20034;-75
2022/06/04 09:21:01;;;;;;;3.72;3.42;;;25.40;64.00;;;;;;5026808;28;20034;-76
2022/06/04 09:23:36;;;;;;;5.25;3.17;;;25.50;63.80;;;;;;5010779;28;20066;-74
2022/06/04 09:26:10;;;;;;;5.65;5.15;;;25.60;63.60;;;;;;4986258;28;20045;-74
2022/06/04 09:29:09;;;;;;;3.45;3.25;;;25.70;63.50;;;;;;5010284;28;20038;-75
2022/06/04 09:32:00;;;;;;;6.03;3.92;;;25.80;63.20;;;;;;5002041;28;20144;-76
2022/06/04 09:34:36;;;;;;;3.95;3.65;;;26.00;62.90;;;;;;4990914;28;20041;-75
2022/06/04 09:37:01;;;;;;;4.63;4.20;;;26.20;62.60;;;;;;4979989;28;20084;-75
2022/06/04 09:39:34;;;;;;;3.78;3.47;;;26.30;62.30;;;;;;4981717;28;20037;-75
2022/06/04 09:42:24;;;;;;;4.38;4.07;;;26.40;62.00;;;;;;4988407;28;20164;-75
2022/06/04 09:44:57;;;;;;;5.65;5.15;;;26.50;61.90;;;;;;4998095;28;20034;-77
2022/06/04 09:47:30;;;;;;;4.53;4.10;;;26.60;61.30;;;;;;5005473;28;20034;-76
2022/06/04 09:49:59;;;;;;;5.35;4.78;;;26.70;61.20;;;;;;5038437;28;20042;-76
2022/06/04 09:52:35;;;;;;;8.00;3.95;;;26.70;61.20;;;;;;4995743;28;20569;-76
2022/06/04 09:55:08;;;;;;;5.18;3.72;;;26.70;60.60;;;;;;5013517;28;20041;-77
2022/06/04 09:57:35;;;;;;;5.35;4.10;;;26.80;60.40;;;;;;4988462;28;20022;-77
2022/06/04 10:00:02;;;;;;;5.00;3.97;;;26.90;60.40;;;;;;5013191;28;20030;-77
2022/06/04 10:02:28;;;;;;;5.05;4.40;;;27.00;60.10;;;;;;5004666;28;20029;-76
2022/06/04 10:05:20;;;;;;;4.25;3.95;;;27.10;59.80;;;;;;5017844;28;20168;-77
2022/06/04 10:07:45;;;;;;;3.63;3.28;;;27.20;59.30;;;;;;5003803;28;20045;-78
2022/06/04 10:10:23;;;;;;;4.63;4.05;;;27.30;59.40;;;;;;4999416;28;20034;-77
2022/06/04 10:15:33;;;;;;;4.50;4.10;;;27.40;59.00;;;;;;5013485;28;20041;-78
2022/06/04 10:18:14;;;;;;;3.65;3.35;;;27.50;58.80;;;;;;5003352;28;20037;-77
2022/06/04 10:20:40;;;;;;;5.22;3.42;;;27.60;58.40;;;;;;4985337;28;20022;-77
2022/06/04 10:23:11;;;;;;;5.13;3.90;;;27.60;58.50;;;;;;4981703;28;20101;-77
2022/06/04 10:26:08;;;;;;;3.72;3.42;;;27.60;58.20;;;;;;4978205;28;20029;-77
2022/06/04 10:28:40;;;;;;;3.75;3.45;;;27.50;57.60;;;;;;4976924;28;20029;-74
2022/06/04 10:31:10;;;;;;;3.85;3.40;;;27.50;57.60;;;;;;5011578;28;20113;-75
2022/06/04 10:33:55;;;;;;;5.15;3.72;;;27.50;57.60;;;;;;5009638;28;20042;-76
2022/06/04 10:36:32;;;;;;;4.50;3.40;;;27.50;57.10;;;;;;4993100;28;20029;-74
2022/06/04 10:39:03;;;;;;;4.68;4.28;;;27.50;57.10;;;;;;5011314;28;20038;-74
2022/06/04 10:42:06;;;;;;;3.67;3.42;;;27.50;57.20;;;;;;4980730;28;20041;-74
2022/06/04 10:44:40;;;;;;;3.60;3.30;;;27.50;56.70;;;;;;4972763;28;20046;-74
2022/06/04 10:47:26;;;;;;;4.07;3.47;;;27.40;56.90;;;;;;5009674;28;20034;-74
2022/06/04 10:49:51;;;;;;;3.50;3.28;;;27.40;56.80;;;;;;4991774;28;20033;-74
2022/06/04 10:52:28;;;;;;;3.65;3.35;;;27.50;56.90;;;;;;5014532;28;20414;-75
2022/06/04 10:55:09;;;;;;;3.75;3.45;;;27.50;56.70;;;;;;4987387;28;20041;-75
2022/06/04 10:57:53;;;;;;;4.75;4.25;;;27.50;56.70;;;;;;4984951;28;20060;-74
2022/06/04 11:00:35;;;;;;;4.28;3.58;;;27.50;56.20;;;;;;5000260;28;20022;-74
2022/06/04 11:03:14;;;;;;;5.47;3.60;;;27.50;56.30;;;;;;4999737;28;20026;-75
2022/06/04 11:05:52;;;;;;;4.13;3.75;;;27.50;56.20;;;;;;4974552;28;20570;-75
2022/06/04 11:08:37;;;;;;;3.28;2.97;;;27.50;56.00;;;;;;4996353;28;20046;-75
2022/06/04 11:11:25;;;;;;;4.00;3.70;;;27.40;56.10;;;;;;4963102;28;20042;-74
2022/06/04 11:14:01;;;;;;;3.80;3.20;;;27.40;56.00;;;;;;5018959;28;20057;-74
2022/06/04 11:16:37;;;;;;;3.53;3.13;;;27.50;56.20;;;;;;4984154;28;20046;-74
2022/06/04 11:19:28;;;;;;;4.50;3.83;;;27.50;56.00;;;;;;4973272;28;20145;-74
2022/06/04 11:22:10;;;;;;;6.38;3.65;;;27.60;55.90;;;;;;4988920;28;20050;-77
2022/06/04 11:24:40;;;;;;;3.30;3.10;;;27.60;55.90;;;;;;4962957;28;20104;-74
2022/06/04 11:27:07;;;;;;;3.40;3.10;;;27.60;56.00;;;;;;4970728;28;20041;-74
2022/06/04 11:29:34;;;;;;;3.55;3.10;;;27.60;56.00;;;;;;4989889;28;20646;-75
2022/06/04 11:32:02;;;;;;;3.78;3.47;;;27.60;55.70;;;;;;5001807;28;20511;-74
2022/06/04 11:35:03;;;;;;;3.28;3.05;;;27.60;55.40;;;;;;4996963;28;20705;-74
2022/06/04 11:37:40;;;;;;;3.42;3.20;;;27.60;55.00;;;;;;5006390;28;20041;-74
2022/06/04 11:40:30;;;;;;;3.28;2.97;;;27.70;55.20;;;;;;5000798;28;20154;-74
2022/06/04 11:42:57;;;;;;;4.18;3.13;;;27.70;55.20;;;;;;4988296;28;20076;-74
2022/06/04 11:45:52;;;;;;;3.40;3.10;;;27.70;55.20;;;;;;4998318;28;20115;-75
2022/06/04 11:48:24;;;;;;;3.53;3.22;;;27.70;55.00;;;;;;4990324;28;20582;-74
2022/06/04 11:51:07;;;;;;;5.57;3.47;;;27.70;55.00;;;;;;5011286;28;20034;-74
2022/06/04 11:53:36;;;;;;;3.30;3.00;;;27.70;54.90;;;;;;4999085;28;20463;-74
2022/06/04 11:56:21;;;;;;;7.97;3.60;;;27.80;55.10;;;;;;5011196;28;20058;-75
2022/06/04 11:59:05;;;;;;;3.70;3.35;;;27.80;54.70;;;;;;4983885;28;20044;-74
2022/06/04 12:01:41;;;;;;;3.42;2.80;;;27.80;54.80;;;;;;4997286;28;20030;-75
2022/06/04 12:04:24;;;;;;;3.03;2.83;;;27.80;54.80;;;;;;4967584;28;20048;-74
2022/06/04 12:06:56;;;;;;;3.83;3.38;;;27.90;54.70;;;;;;4995483;28;20038;-74
2022/06/04 12:09:30;;;;;;;5.45;3.63;;;27.90;54.70;;;;;;4993545;28;20118;-74
2022/06/04 12:12:16;;;;;;;3.38;3.15;;;27.90;54.60;;;;;;4970802;28;20747;-74
2022/06/04 12:14:47;;;;;;;3.85;3.55;;;28.00;54.40;;;;;;4985857;28;20049;-74
2022/06/04 12:17:21;;;;;;;;;;;28.00;54.50;;;;;;5012616;28;20132;-74
2022/06/04 12:26:32;;;;;;;3.13;2.88;;;28.00;54.00;;;;;;4991742;28;20434;-74
2022/06/04 12:28:58;;;;;;;3.85;3.53;;;28.00;54.20;;;;;;4976939;28;20042;-74
2022/06/04 12:31:36;;;;;;;4.07;3.78;;;28.10;54.40;;;;;;4981922;28;20038;-74
2022/06/04 12:34:03;;;;;;;4.60;3.88;;;28.10;53.90;;;;;;5000659;28;20161;-75
2022/06/04 12:36:37;;;;;;;3.92;3.53;;;28.10;54.10;;;;;;4976189;28;20048;-73
2022/06/04 12:39:05;;;;;;;4.18;3.47;;;28.10;53.90;;;;;;4993074;28;20030;-75
2022/06/04 12:41:44;;;;;;;3.80;3.50;;;28.10;54.00;;;;;;4995546;28;20029;-74
2022/06/04 12:44:25;;;;;;;4.28;3.88;;;28.20;53.80;;;;;;4997137;28;20080;-75
2022/06/04 12:46:51;;;;;;;4.70;4.30;;;28.20;53.50;;;;;;4969555;28;20039;-74
2022/06/04 12:49:26;;;;;;;4.82;4.05;;;28.10;53.70;;;;;;5018215;28;20815;-74
2022/06/04 12:52:12;;;;;;;3.53;3.33;;;28.10;53.80;;;;;;4985843;28;20044;-74
2022/06/04 12:54:50;;;;;;;3.42;3.20;;;28.00;53.90;;;;;;4982583;28;20041;-75
2022/06/04 12:57:30;;;;;;;4.07;3.78;;;28.00;53.70;;;;;;4988667;28;20049;-74
2022/06/04 13:00:17;;;;;;;4.65;4.10;;;28.00;53.80;;;;;;4999690;28;20030;-74
2022/06/04 13:02:53;;;;;;;4.65;3.92;;;28.10;53.60;;;;;;4992261;28;20045;-74
2022/06/04 13:05:21;;;;;;;4.15;3.63;;;28.00;53.70;;;;;;4978611;28;20033;-73
2022/06/04 13:07:49;;;;;;;3.92;3.58;;;28.00;53.60;;;;;;4985728;28;20046;-75
2022/06/04 13:10:33;;;;;;;4.03;3.42;;;28.00;53.60;;;;;;5008579;28;20578;-75
2022/06/04 13:13:04;;;;;;;3.70;3.40;;;28.00;53.60;;;;;;5020774;28;20493;-74
2022/06/04 13:15:52;;;;;;;4.00;3.70;;;28.10;53.70;;;;;;4983001;28;20030;-74
2022/06/04 13:18:28;;;;;;;6.25;3.63;;;28.20;53.70;;;;;;4992310;28;20196;-75
2022/06/04 13:21:01;;;;;;;3.85;3.55;;;28.40;53.40;;;;;;4997076;28;20052;-74
2022/06/04 13:23:41;;;;;;;4.07;3.65;;;28.50;53.20;;;;;;4981033;28;20734;-75
2022/06/04 13:26:25;;;;;;;4.10;3.58;;;28.60;53.20;;;;;;4990249;28;20030;-75